Time;durP1;ratioP1;P1;durP2;ratioP2;P2;SDS_P1;SDS_P2;PMS_P1;PMS_P2;Temp;Humidity;BMP_temperature;BMP_pressure;BME280_temperature;BME280_humidity;BME280_pressure;Samples;Min_cycle;Max_cycle;Signal;HPM_P1;HPM_P2
2022/01/13 00:00:10;;;;;;;331.63;70.70;;;;;;;-0.54;71.20;101271.91;341331;29;873;-71
2022/01/13 00:00:20;;;;;;;333.02;71.00;;;;;;;-0.52;70.90;101274.53;341070;29;1252;-72
2022/01/13 00:00:30;;;;;;;333.50;71.67;;;;;;;-0.55;71.32;101275.31;342475;28;870;-71
2022/01/13 00:00:41;;;;;;;335.83;73.13;;;;;;;-0.53;70.73;101272.78;339894;29;1321;-71
2022/01/13 00:00:51;;;;;;;334.90;72.60;;;;;;;-0.53;70.92;101283.94;342560;28;920;-71
2022/01/13 00:01:02;;;;;;;335.00;72.15;;;;;;;-0.54;71.21;101277.06;342345;28;1443;-71
2022/01/13 00:01:14;;;;;;;336.02;72.55;;;;;;;-0.53;71.39;101280.50;343903;28;1192;-70
2022/01/13 00:01:32;;;;;;;335.33;71.65;;;;;;;-0.55;71.07;101274.44;343869;28;1524;-70
2022/01/13 00:01:42;;;;;;;333.67;70.70;;;;;;;-0.55;71.30;101275.31;343888;28;2600;-70
2022/01/13 00:01:55;;;;;;;334.60;72.38;;;;;;;-0.56;71.33;101272.69;343865;28;1272;-70
2022/01/13 00:02:05;;;;;;;334.58;71.03;;;;;;;-0.54;71.52;101281.31;342644;28;1312;-70
2022/01/13 00:02:16;;;;;;;334.17;71.10;;;;;;;-0.54;71.09;101279.63;341178;28;1407;-71
2022/01/13 00:02:31;;;;;;;333.52;70.63;;;;;;;-0.54;71.75;101278.75;341126;29;826;-71
2022/01/13 00:02:41;;;;;;;333.35;70.65;;;;;;;-0.54;70.98;101277.06;341192;29;954;-70
2022/01/13 00:02:52;;;;;;;334.02;70.68;;;;;;;-0.54;71.26;101282.19;341280;29;943;-71
2022/01/13 00:03:02;;;;;;;334.07;71.63;;;;;;;-0.54;71.10;101271.91;338560;29;1356;-72
2022/01/13 00:03:13;;;;;;;333.73;71.63;;;;;;;-0.54;71.31;101283.91;341642;28;2625;-72
2022/01/13 00:03:23;;;;;;;334.17;71.80;;;;;;;-0.53;71.71;101278.81;341172;28;1460;-70
2022/01/13 00:03:33;;;;;;;334.48;71.57;;;;;;;-0.56;71.49;101278.72;342338;28;2062;-70
2022/01/13 00:03:45;;;;;;;336.77;71.87;;;;;;;-0.55;71.09;101279.59;338565;29;1040;-70
2022/01/13 00:03:56;;;;;;;337.00;72.88;;;;;;;-0.56;71.70;101271.00;339897;29;1391;-70
2022/01/13 00:04:07;;;;;;;336.75;72.95;;;;;;;-0.55;71.05;101275.31;342559;28;1560;-70
2022/01/13 00:04:18;;;;;;;335.00;72.63;;;;;;;-0.55;71.24;101277.88;343694;28;1279;-70
2022/01/13 00:04:28;;;;;;;332.10;70.07;;;;;;;-0.56;71.49;101273.56;342444;28;854;-70
2022/01/13 00:04:39;;;;;;;331.03;68.97;;;;;;;-0.54;71.13;101278.75;342750;28;837;-70
2022/01/13 00:04:49;;;;;;;333.45;70.13;;;;;;;-0.53;71.03;101277.94;342671;28;834;-70
2022/01/13 00:04:59;;;;;;;335.90;71.63;;;;;;;-0.54;71.17;101279.63;342581;28;972;-71
2022/01/13 00:05:10;;;;;;;337.00;71.80;;;;;;;-0.55;71.29;101275.31;342580;28;1300;-70
2022/01/13 00:05:27;;;;;;;338.05;73.18;;;;;;;-0.57;71.69;101274.41;343851;28;1265;-70
2022/01/13 00:05:37;;;;;;;337.48;73.65;;;;;;;-0.57;71.51;101276.97;343867;28;1451;-70
2022/01/13 00:05:47;;;;;;;334.67;73.15;;;;;;;-0.57;70.88;101279.53;342602;28;837;-70
2022/01/13 00:05:58;;;;;;;333.83;71.70;;;;;;;-0.56;71.48;101281.28;339896;29;1426;-70
2022/01/13 00:06:08;;;;;;;334.48;71.07;;;;;;;-0.57;71.47;101276.97;342618;28;877;-70
2022/01/13 00:06:18;;;;;;;334.83;69.83;;;;;;;-0.56;71.89;101282.97;343858;28;1067;-70
2022/01/13 00:06:29;;;;;;;335.13;71.07;;;;;;;-0.57;71.99;101287.25;342436;28;1248;-70
2022/01/13 00:06:40;;;;;;;335.60;71.90;;;;;;;-0.58;71.44;101285.50;342618;28;948;-70
2022/01/13 00:06:50;;;;;;;333.98;72.18;;;;;;;-0.59;71.48;101278.63;342705;28;822;-70
2022/01/13 00:07:00;;;;;;;335.08;72.30;;;;;;;-0.60;72.04;101282.00;339796;29;1147;-70
2022/01/13 00:07:11;;;;;;;334.10;71.57;;;;;;;-0.59;71.97;101288.91;345258;28;1295;-70
2022/01/13 00:07:21;;;;;;;333.93;71.13;;;;;;;-0.58;71.62;101280.38;345329;28;877;-70
2022/01/13 00:07:31;;;;;;;332.70;70.68;;;;;;;-0.55;71.76;101282.16;343837;28;1210;-70
2022/01/13 00:07:42;;;;;;;332.37;70.90;;;;;;;-0.55;72.09;101280.47;341010;28;1286;-70
2022/01/13 00:07:55;;;;;;;332.38;70.30;;;;;;;-0.56;71.93;101282.97;342403;28;683;-70
2022/01/13 00:08:05;;;;;;;332.40;69.30;;;;;;;-0.58;72.01;101280.38;344811;28;1606;-70
2022/01/13 00:08:16;;;;;;;330.48;68.00;;;;;;;-0.56;71.77;101285.56;342396;28;877;-70
2022/01/13 00:08:26;;;;;;;332.07;70.30;;;;;;;-0.57;71.69;101281.22;339281;28;1178;-70
2022/01/13 00:08:37;;;;;;;332.77;71.38;;;;;;;-0.56;71.87;101278.72;340872;28;1205;-70
2022/01/13 00:08:50;;;;;;;334.87;73.13;;;;;;;-0.57;72.08;101288.94;343969;28;901;-70
2022/01/13 00:09:00;;;;;;;333.92;71.68;;;;;;;-0.59;71.73;101280.31;342477;28;1312;-70
2022/01/13 00:09:11;;;;;;;334.20;71.33;;;;;;;-0.58;71.51;101274.34;342562;28;1209;-70
2022/01/13 00:09:21;;;;;;;334.15;72.03;;;;;;;-0.59;72.31;101277.75;345211;28;1435;-70
2022/01/13 00:09:32;;;;;;;333.13;71.80;;;;;;;-0.60;71.77;101281.13;345255;28;840;-70
2022/01/13 00:09:43;;;;;;;332.63;71.47;;;;;;;-0.59;71.52;101278.63;341749;28;1260;-70
2022/01/13 00:09:53;;;;;;;331.77;70.70;;;;;;;-0.60;72.12;101276.88;339995;29;925;-70
2022/01/13 00:10:04;;;;;;;334.40;72.60;;;;;;;-0.58;72.11;101279.50;339931;29;914;-70
2022/01/13 00:10:14;;;;;;;336.10;73.45;;;;;;;-0.60;71.96;101271.72;339977;29;1033;-70
2022/01/13 00:10:25;;;;;;;335.73;72.32;;;;;;;-0.61;72.05;101277.69;338411;29;1257;-70
2022/01/13 00:10:35;;;;;;;335.63;72.03;;;;;;;-0.60;72.00;101279.44;339930;29;826;-70
2022/01/13 00:10:46;;;;;;;334.85;70.75;;;;;;;-0.63;71.99;101276.78;341271;29;964;-70
2022/01/13 00:10:56;;;;;;;335.40;71.83;;;;;;;-0.64;72.39;101280.16;342658;28;904;-71
2022/01/13 00:11:07;;;;;;;333.88;70.72;;;;;;;-0.63;72.38;101278.47;341243;28;1339;-71
2022/01/13 00:11:17;;;;;;;333.03;71.40;;;;;;;-0.62;72.37;101273.38;339856;29;1287;-71
2022/01/13 00:11:27;;;;;;;334.13;72.22;;;;;;;-0.61;71.86;101275.13;341066;28;1249;-71
2022/01/13 00:11:38;;;;;;;335.87;72.83;;;;;;;-0.62;71.90;101275.94;345201;28;1244;-69
2022/01/13 00:11:50;;;;;;;334.58;72.38;;;;;;;-0.63;72.35;101275.91;342603;28;927;-69
2022/01/13 00:12:00;;;;;;;332.40;71.22;;;;;;;-0.65;72.55;101278.41;341295;29;939;-69
2022/01/13 00:12:12;;;;;;;333.00;72.47;;;;;;;-0.66;72.23;101276.69;342384;28;1216;-70
2022/01/13 00:12:27;;;;;;;335.63;72.60;;;;;;;-0.71;72.25;101273.09;339719;29;1545;-70
2022/01/13 00:12:42;;;;;;;335.70;71.45;;;;;;;-0.72;73.02;101279.06;341286;29;2238;-70
2022/01/13 00:13:07;;;;;;;333.70;71.57;;;;;;;-0.67;72.18;101282.63;340002;29;1020;-71
2022/01/13 00:13:24;;;;;;;332.73;70.35;;;;;;;-0.65;72.23;101278.41;342563;28;801;-71
2022/01/13 00:13:47;;;;;;;335.23;71.47;;;;;;;-0.63;72.49;101276.78;342602;28;1087;-71
2022/01/13 00:14:22;;;;;;;336.75;73.13;;;;;;;-0.65;72.04;101278.41;343941;28;873;-71
2022/01/13 00:15:10;;;;;;;335.73;73.35;;;;;;;-0.70;72.50;101273.13;339972;29;915;-70
2022/01/13 00:15:48;;;;;;;336.32;72.50;;;;;;;-0.65;72.75;101277.53;341214;29;645;-70
2022/01/13 00:17:28;;;;;;;331.25;71.82;;;;;;;-0.70;72.73;101285.97;341260;29;782;-70
2022/01/13 00:17:33;;;;;;;331.83;70.15;;;;;;;-0.72;72.59;101286.75;345176;28;1056;-71
2022/01/13 00:18:02;;;;;;;331.52;72.30;;;;;;;-0.76;73.10;101282.34;342567;28;1281;-71
2022/01/13 00:18:16;;;;;;;332.13;72.18;;;;;;;-0.77;72.39;101278.03;342582;28;860;-70
2022/01/13 00:18:41;;;;;;;334.00;73.10;;;;;;;-0.78;72.63;101286.56;340972;29;975;-70
2022/01/13 00:19:04;;;;;;;334.42;73.53;;;;;;;-0.81;72.87;101286.47;342519;28;893;-70
2022/01/13 00:20:29;;;;;;;332.77;72.53;;;;;;;-0.72;73.10;101281.63;344002;28;789;-70
2022/01/13 00:21:31;;;;;;;333.90;74.07;;;;;;;-0.68;72.80;101283.47;342559;28;1137;-70
2022/01/13 00:21:35;;;;;;;332.57;70.53;;;;;;;-0.77;72.82;101280.59;341371;28;1215;-70
2022/01/13 00:22:01;;;;;;;334.92;72.38;;;;;;;-0.75;72.56;101282.41;345172;28;1052;-70
2022/01/13 00:22:21;;;;;;;332.52;71.40;;;;;;;-0.77;72.56;101283.16;345191;28;912;-70
2022/01/13 00:23:39;;;;;;;333.90;73.40;;;;;;;-0.72;72.42;101289.34;345683;28;793;-70
2022/01/13 00:23:53;;;;;;;334.63;71.88;;;;;;;-0.73;73.16;101279.88;343888;28;935;-70
2022/01/13 00:24:05;;;;;;;334.65;71.75;;;;;;;-0.73;72.70;101291.03;343866;28;1528;-70
2022/01/13 00:24:16;;;;;;;336.90;74.55;;;;;;;-0.74;72.92;101288.41;345108;28;2043;-70
2022/01/13 00:24:26;;;;;;;335.95;74.75;;;;;;;-0.73;72.74;101285.00;343756;28;988;-70
2022/01/13 00:24:36;;;;;;;334.47;74.83;;;;;;;-0.72;nan;101294.47;343867;28;1256;-70
2022/01/13 00:24:51;;;;;;;332.95;72.95;;;;;;;-0.70;72.75;101295.41;343943;28;817;-70
2022/01/13 00:25:03;;;;;;;334.55;73.07;;;;;;;-0.73;72.71;101290.16;343959;28;991;-70
2022/01/13 00:25:16;;;;;;;335.50;72.60;;;;;;;-0.75;72.50;101287.53;342526;28;873;-71
2022/01/13 00:25:32;;;;;;;336.33;70.70;;;;;;;-0.73;72.98;101285.00;343789;28;1304;-70
2022/01/13 00:25:43;;;;;;;338.50;72.85;;;;;;;-0.74;72.79;101293.56;342608;28;977;-70
2022/01/13 00:25:56;;;;;;;340.17;74.63;;;;;;;-0.75;73.09;101287.53;343878;28;1293;-70
2022/01/13 00:26:13;;;;;;;339.67;74.07;;;;;;;-0.75;72.87;101287.53;342522;28;951;-70
2022/01/13 00:26:26;;;;;;;336.80;73.50;;;;;;;-0.72;72.52;101294.47;342430;28;892;-70
2022/01/13 00:26:36;;;;;;;336.25;72.75;;;;;;;-0.73;72.16;101285.88;341223;29;1008;-70
2022/01/13 00:26:47;;;;;;;336.33;73.45;;;;;;;-0.71;73.07;101288.50;341330;29;912;-70
2022/01/13 00:26:58;;;;;;;336.05;73.22;;;;;;;-0.72;73.08;101291.91;338620;29;932;-70
2022/01/13 00:27:11;;;;;;;337.53;74.27;;;;;;;-0.72;73.20;101289.34;341265;29;853;-70
2022/01/13 00:27:24;;;;;;;338.08;73.07;;;;;;;-0.69;73.16;101292.00;339732;28;1312;-70
2022/01/13 00:27:37;;;;;;;337.10;72.90;;;;;;;-0.68;73.32;101293.75;339923;29;909;-70
2022/01/13 00:27:54;;;;;;;338.20;73.15;;;;;;;-0.73;73.13;101293.59;340007;29;980;-71
2022/01/13 00:28:13;;;;;;;339.00;71.72;;;;;;;-0.76;72.83;101295.19;341279;29;923;-72
2022/01/13 00:28:24;;;;;;;338.52;71.88;;;;;;;-0.77;73.00;101294.31;339702;29;1317;-71
2022/01/13 00:28:35;;;;;;;335.60;71.97;;;;;;;-0.74;73.32;101298.69;343781;28;1335;-71
2022/01/13 00:28:48;;;;;;;336.17;74.38;;;;;;;-0.74;72.94;101293.56;343886;28;918;-71
2022/01/13 00:29:01;;;;;;;338.55;74.45;;;;;;;-0.74;72.61;101294.41;342494;28;969;-71
2022/01/13 00:29:12;;;;;;;338.95;73.82;;;;;;;-0.75;73.10;101294.38;343841;28;983;-71
2022/01/13 00:29:29;;;;;;;338.43;74.70;;;;;;;-0.75;72.76;101291.81;343875;28;841;-70
2022/01/13 00:29:41;;;;;;;336.75;74.85;;;;;;;-0.76;72.79;101290.06;341163;29;1447;-70
2022/01/13 00:29:55;;;;;;;335.27;73.15;;;;;;;-0.79;73.06;101295.09;341236;28;881;-70
2022/01/13 00:30:13;;;;;;;338.38;73.22;;;;;;;-0.83;72.83;101295.81;341240;29;928;-70
2022/01/13 00:30:25;;;;;;;339.05;73.95;;;;;;;-0.85;73.09;101297.47;341090;29;881;-70
2022/01/13 00:30:37;;;;;;;338.38;73.13;;;;;;;-0.86;73.23;101301.72;342566;28;999;-70
2022/01/13 00:30:52;;;;;;;338.60;72.90;;;;;;;-0.87;73.51;101292.31;341258;29;897;-70
2022/01/13 00:31:05;;;;;;;339.02;73.60;;;;;;;-0.86;73.22;101299.16;343869;28;916;-70
2022/01/13 00:31:18;;;;;;;338.70;75.07;;;;;;;-0.85;73.19;101300.91;343901;28;1495;-70
2022/01/13 00:31:33;;;;;;;338.23;75.35;;;;;;;-0.83;73.61;101300.97;341267;29;971;-70
2022/01/13 00:31:44;;;;;;;336.38;72.45;;;;;;;-0.82;73.62;101303.56;339986;29;973;-70
2022/01/13 00:31:54;;;;;;;338.20;73.13;;;;;;;-0.82;73.25;101295.00;343962;28;936;-70
2022/01/13 00:32:05;;;;;;;338.80;74.07;;;;;;;-0.81;73.29;101301.88;343798;28;1202;-71
2022/01/13 00:32:16;;;;;;;339.83;74.60;;;;;;;-0.80;73.23;101299.38;341212;29;1205;-71
2022/01/13 00:32:30;;;;;;;337.40;74.05;;;;;;;-0.79;72.99;101300.25;339703;29;1245;-70
2022/01/13 00:32:40;;;;;;;336.88;73.15;;;;;;;-0.79;73.40;101302.81;341150;29;1299;-70
2022/01/13 00:32:50;;;;;;;337.13;72.47;;;;;;;-0.79;73.34;101295.09;342477;28;1268;-71
2022/01/13 00:33:01;;;;;;;337.77;72.32;;;;;;;-0.78;74.14;101299.41;343870;28;1390;-71
2022/01/13 00:33:13;;;;;;;336.95;72.88;;;;;;;-0.77;73.36;101303.72;345141;28;1526;-71
2022/01/13 00:33:25;;;;;;;338.08;73.43;;;;;;;-0.78;73.85;101301.97;343835;28;877;-71
2022/01/13 00:33:35;;;;;;;339.00;74.38;;;;;;;-0.81;73.75;101304.44;341134;29;1030;-70
2022/01/13 00:33:47;;;;;;;341.33;74.43;;;;;;;-0.82;73.96;101300.13;343787;28;1862;-70
2022/01/13 00:33:58;;;;;;;340.67;75.00;;;;;;;-0.83;73.64;101298.38;342630;28;885;-70
2022/01/13 00:34:09;;;;;;;338.70;73.57;;;;;;;-0.81;74.12;101307.03;343821;28;1634;-70
2022/01/13 00:34:19;;;;;;;337.73;72.80;;;;;;;-0.81;74.25;101304.44;343887;28;909;-70
2022/01/13 00:34:30;;;;;;;337.73;72.20;;;;;;;-0.80;74.13;101303.63;342130;28;1229;-70
2022/01/13 00:34:40;;;;;;;338.10;73.32;;;;;;;-0.81;73.84;101309.59;338690;29;909;-70
2022/01/13 00:34:51;;;;;;;338.70;73.72;;;;;;;-0.82;73.83;101305.28;341259;29;762;-70
2022/01/13 00:35:01;;;;;;;339.40;74.50;;;;;;;-0.83;73.94;101303.53;341238;29;928;-70
2022/01/13 00:35:12;;;;;;;339.70;74.72;;;;;;;-0.86;73.62;101308.56;341291;29;838;-71
2022/01/13 00:35:22;;;;;;;338.23;75.27;;;;;;;-0.87;74.49;101306.84;342523;28;813;-71
2022/01/13 00:35:32;;;;;;;338.60;74.78;;;;;;;-0.87;73.81;101312.00;341157;29;1205;-71
2022/01/13 00:35:43;;;;;;;337.47;73.97;;;;;;;-0.87;73.73;101312.88;341226;28;1125;-70
2022/01/13 00:35:58;;;;;;;338.55;74.05;;;;;;;-0.86;74.52;101308.56;339917;29;921;-70
2022/01/13 00:36:09;;;;;;;338.95;73.90;;;;;;;-0.87;73.78;101306.84;342704;28;1335;-70
2022/01/13 00:36:19;;;;;;;342.20;74.72;;;;;;;-0.87;73.99;101306.84;342395;28;1482;-70
2022/01/13 00:36:36;;;;;;;342.70;75.00;;;;;;;-0.88;74.12;101311.13;339765;29;1189;-70
2022/01/13 00:36:47;;;;;;;341.02;74.95;;;;;;;-0.87;74.21;101317.13;341269;29;798;-71
2022/01/13 00:36:58;;;;;;;341.37;74.40;;;;;;;-0.87;74.58;101309.44;341228;29;948;-70
2022/01/13 00:37:08;;;;;;;340.98;75.47;;;;;;;-0.85;74.45;101310.31;343833;28;1181;-70
2022/01/13 00:37:19;;;;;;;340.23;75.20;;;;;;;-0.86;74.56;101309.44;343974;28;884;-70
2022/01/13 00:37:29;;;;;;;338.90;74.97;;;;;;;-0.85;74.28;101315.47;343882;28;909;-70
2022/01/13 00:37:40;;;;;;;338.80;74.05;;;;;;;-0.83;74.61;101308.66;341206;29;1015;-70
2022/01/13 00:37:51;;;;;;;340.33;74.43;;;;;;;-0.84;74.26;101312.06;342476;28;1326;-70
2022/01/13 00:38:01;;;;;;;340.60;74.53;;;;;;;-0.84;74.20;101312.06;341294;29;893;-71
2022/01/13 00:38:12;;;;;;;341.03;75.10;;;;;;;-0.84;74.92;101317.19;342565;28;893;-70
2022/01/13 00:38:22;;;;;;;340.95;75.38;;;;;;;-0.85;74.35;101310.31;342218;28;806;-70
2022/01/13 00:38:33;;;;;;;341.43;76.20;;;;;;;-0.84;74.70;101309.50;342541;28;845;-70
2022/01/13 00:38:43;;;;;;;340.27;75.38;;;;;;;-0.83;74.74;101316.38;342560;28;1123;-70
2022/01/13 00:38:53;;;;;;;338.90;74.70;;;;;;;-0.83;74.58;101311.25;342611;28;881;-70
2022/01/13 00:39:05;;;;;;;338.40;73.93;;;;;;;-0.84;74.70;101304.34;346621;28;900;-70
2022/01/13 00:39:15;;;;;;;339.08;73.55;;;;;;;-0.85;74.18;101312.88;345180;28;1468;-70
2022/01/13 00:39:25;;;;;;;338.70;73.35;;;;;;;-0.85;74.58;101312.88;341063;29;1264;-70
2022/01/13 00:39:36;;;;;;;338.60;75.03;;;;;;;-0.86;74.45;101308.56;341246;29;936;-70
2022/01/13 00:39:46;;;;;;;338.80;76.33;;;;;;;-0.88;75.05;101310.25;342473;28;1392;-70
2022/01/13 00:39:57;;;;;;;338.90;76.38;;;;;;;-0.87;74.69;101306.84;342565;28;948;-70
2022/01/13 00:40:08;;;;;;;339.37;74.47;;;;;;;-0.88;75.10;101315.38;339953;29;830;-70
2022/01/13 00:40:18;;;;;;;340.90;73.75;;;;;;;-0.87;74.38;101312.00;343929;28;806;-70
2022/01/13 00:40:28;;;;;;;340.33;73.40;;;;;;;-0.89;75.44;101313.63;341038;28;1278;-70
2022/01/13 00:40:39;;;;;;;340.77;74.43;;;;;;;-0.90;74.89;101309.31;341280;29;857;-69
2022/01/13 00:40:49;;;;;;;338.33;74.80;;;;;;;-0.91;75.21;101307.56;342525;28;1213;-69
2022/01/13 00:41:00;;;;;;;338.03;76.17;;;;;;;-0.90;75.17;101314.47;342558;28;873;-69
2022/01/13 00:41:10;;;;;;;336.83;76.35;;;;;;;-0.92;75.50;101313.53;340987;28;1275;-69
2022/01/13 00:41:21;;;;;;;338.23;77.40;;;;;;;-0.92;75.32;101313.53;343817;28;1382;-69
2022/01/13 00:41:31;;;;;;;338.17;76.55;;;;;;;-0.94;75.18;101310.03;341177;28;1506;-69
2022/01/13 00:41:42;;;;;;;338.15;75.53;;;;;;;-0.96;76.06;101320.28;343789;28;1247;-71
2022/01/13 00:41:52;;;;;;;338.70;75.27;;;;;;;-0.97;75.64;101318.53;343887;28;925;-71
2022/01/13 00:42:03;;;;;;;338.80;75.15;;;;;;;-0.94;75.60;101325.47;339843;29;1220;-71
2022/01/13 00:42:13;;;;;;;338.40;75.82;;;;;;;-0.93;75.83;101316.94;339828;29;1433;-71
2022/01/13 00:42:25;;;;;;;336.80;74.63;;;;;;;-0.91;75.71;101323.00;339789;29;923;-71
2022/01/13 00:42:35;;;;;;;335.88;74.07;;;;;;;-0.93;75.74;101310.09;339929;29;932;-71
2022/01/13 00:42:46;;;;;;;335.00;73.50;;;;;;;-0.91;75.72;101315.28;341134;29;1265;-71
2022/01/13 00:42:56;;;;;;;334.45;73.13;;;;;;;-0.90;75.73;101309.31;341257;29;885;-71
2022/01/13 00:43:06;;;;;;;333.20;73.87;;;;;;;-0.89;75.62;101318.78;341275;29;882;-71
2022/01/13 00:43:17;;;;;;;332.92;73.10;;;;;;;-0.89;75.66;101318.78;341178;29;901;-71
2022/01/13 00:43:27;;;;;;;332.50;73.17;;;;;;;-0.90;75.61;101322.16;341191;29;901;-71
2022/01/13 00:43:40;;;;;;;333.70;73.18;;;;;;;-0.92;75.90;101324.69;338400;29;1988;-71
2022/01/13 00:43:51;;;;;;;334.00;73.32;;;;;;;-0.92;75.67;101321.25;338652;29;811;-71
2022/01/13 00:44:03;;;;;;;335.20;73.60;;;;;;;-0.92;75.94;101323.81;339786;29;1673;-71
2022/01/13 00:44:19;;;;;;;338.17;74.35;;;;;;;-0.94;75.59;101325.47;339927;29;877;-71
2022/01/13 00:44:35;;;;;;;339.63;74.22;;;;;;;-0.99;76.35;101320.16;340916;28;1155;-71
2022/01/13 00:44:48;;;;;;;337.42;73.25;;;;;;;-0.97;76.21;101323.66;339773;29;1465;-71
2022/01/13 00:45:00;;;;;;;336.90;73.20;;;;;;;-0.99;76.36;101321.88;339945;29;886;-71
2022/01/13 00:45:14;;;;;;;336.92;73.45;;;;;;;-0.99;76.45;101319.28;341308;29;846;-71
2022/01/13 00:45:25;;;;;;;337.10;74.10;;;;;;;-1.02;76.73;101326.06;341140;29;893;-70
2022/01/13 00:45:35;;;;;;;336.75;74.63;;;;;;;-1.02;76.62;101323.50;341116;29;1347;-70
2022/01/13 00:45:48;;;;;;;338.17;74.43;;;;;;;-1.02;76.92;101326.06;342518;28;1253;-70
2022/01/13 00:45:58;;;;;;;339.50;74.45;;;;;;;-1.02;76.91;101323.50;342314;28;1467;-70
2022/01/13 00:46:09;;;;;;;339.42;74.47;;;;;;;-1.03;76.79;101326.03;342685;28;1300;-70
2022/01/13 00:46:22;;;;;;;340.02;75.05;;;;;;;-1.01;77.14;101332.09;343722;28;1528;-70
2022/01/13 00:46:43;;;;;;;339.30;75.10;;;;;;;-0.97;76.94;101328.81;341136;28;1542;-70
2022/01/13 00:47:00;;;;;;;336.23;74.28;;;;;;;-0.94;76.72;101333.16;342590;28;861;-70
2022/01/13 00:47:11;;;;;;;336.04;73.12;;;;;;;-0.93;76.67;101329.78;343870;28;1083;-70
2022/01/13 00:47:21;;;;;;;336.03;73.07;;;;;;;-0.95;76.91;101334.00;343837;28;1234;-70
2022/01/13 00:47:34;;;;;;;335.80;73.68;;;;;;;-0.96;76.80;101335.69;341066;28;1276;-70
2022/01/13 00:47:45;;;;;;;337.48;74.95;;;;;;;-0.96;76.81;101334.81;341109;28;1295;-71
2022/01/13 00:47:55;;;;;;;337.10;74.67;;;;;;;-0.96;77.00;101332.25;342515;28;949;-71
2022/01/13 00:48:06;;;;;;;337.48;74.32;;;;;;;-0.94;77.24;101330.59;345159;28;1343;-71
2022/01/13 00:48:16;;;;;;;337.37;74.20;;;;;;;-0.96;77.24;101332.25;343880;28;884;-71
2022/01/13 00:48:26;;;;;;;338.52;75.35;;;;;;;-0.95;77.32;101334.00;341068;29;1079;-71
2022/01/13 00:48:37;;;;;;;337.47;74.87;;;;;;;-0.97;77.02;101335.63;342521;28;1061;-71
2022/01/13 00:48:48;;;;;;;336.25;73.90;;;;;;;-0.99;77.51;101324.44;342491;28;1228;-71
2022/01/13 00:48:58;;;;;;;336.85;74.10;;;;;;;-0.99;77.15;101332.13;342510;28;862;-71
2022/01/13 00:49:10;;;;;;;338.63;75.18;;;;;;;-1.01;77.66;101330.41;341158;28;1197;-71
2022/01/13 00:49:20;;;;;;;338.88;75.05;;;;;;;-0.99;77.40;101332.13;342579;28;861;-71
2022/01/13 00:49:31;;;;;;;338.92;75.57;;;;;;;-0.99;77.39;101332.13;342324;28;1659;-71
2022/01/13 00:49:41;;;;;;;338.10;75.97;;;;;;;-1.01;77.38;101330.41;341251;29;873;-71
2022/01/13 00:49:52;;;;;;;337.80;76.35;;;;;;;-1.02;77.63;101335.47;342602;28;877;-71
2022/01/13 00:50:04;;;;;;;338.47;75.30;;;;;;;-1.02;77.93;101333.78;342514;28;814;-71
2022/01/13 00:50:14;;;;;;;339.30;75.55;;;;;;;-1.06;78.01;101329.38;342554;28;1298;-71
2022/01/13 00:50:25;;;;;;;340.13;75.93;;;;;;;-1.08;78.24;101338.72;342434;28;873;-71
2022/01/13 00:50:35;;;;;;;341.67;77.00;;;;;;;-1.08;78.53;101338.72;342446;28;1275;-71
2022/01/13 00:50:45;;;;;;;340.17;75.30;;;;;;;-1.08;77.90;101337.84;341249;29;976;-71
2022/01/13 00:50:56;;;;;;;340.33;75.37;;;;;;;-1.07;77.92;101330.19;343958;28;881;-71
2022/01/13 00:51:06;;;;;;;339.95;75.85;;;;;;;-1.04;78.21;101330.28;341053;29;1251;-71
2022/01/13 00:51:17;;;;;;;341.13;76.30;;;;;;;-1.02;78.07;101333.78;339967;29;822;-71
2022/01/13 00:51:28;;;;;;;340.27;75.95;;;;;;;-1.03;78.24;101338.88;342463;28;670;-71
2022/01/13 00:51:38;;;;;;;342.23;76.83;;;;;;;-1.03;78.30;101329.47;343694;28;1388;-71
2022/01/13 00:51:49;;;;;;;343.25;77.10;;;;;;;-1.04;78.60;101339.69;342566;28;798;-71
2022/01/13 00:51:59;;;;;;;344.27;76.97;;;;;;;-1.06;78.30;101339.63;343928;28;834;-72
2022/01/13 00:52:11;;;;;;;342.90;75.03;;;;;;;-1.07;78.62;101329.31;341238;29;941;-71
2022/01/13 00:52:21;;;;;;;343.33;76.03;;;;;;;-1.06;78.01;101342.22;343780;28;916;-71
2022/01/13 00:52:32;;;;;;;342.10;75.85;;;;;;;-1.08;78.56;101341.28;343892;28;742;-71
2022/01/13 00:52:42;;;;;;;342.37;76.60;;;;;;;-1.06;78.41;101344.78;342267;28;1351;-70
2022/01/13 00:52:52;;;;;;;342.55;76.10;;;;;;;-1.07;78.46;101340.47;343945;28;1035;-70
2022/01/13 00:53:03;;;;;;;343.33;76.70;;;;;;;-1.07;78.39;101337.88;342541;28;861;-70
2022/01/13 00:53:13;;;;;;;343.98;77.53;;;;;;;-1.05;78.53;101343.09;341188;29;901;-70
2022/01/13 00:53:24;;;;;;;344.70;77.70;;;;;;;-1.04;79.01;101340.56;340832;29;1399;-70
2022/01/13 00:53:34;;;;;;;343.83;76.53;;;;;;;-1.07;79.11;101337.88;338616;29;841;-70
2022/01/13 00:53:44;;;;;;;344.50;75.63;;;;;;;-1.08;78.85;101331.00;339751;29;1047;-70
2022/01/13 00:54:02;;;;;;;344.00;75.80;;;;;;;-1.06;78.91;101336.19;342586;28;905;-70
2022/01/13 00:54:12;;;;;;;346.23;76.60;;;;;;;-1.09;79.42;101334.41;343850;28;924;-70
2022/01/13 00:54:23;;;;;;;344.40;76.90;;;;;;;-1.07;78.73;101340.47;341582;28;1320;-71
2022/01/13 00:54:34;;;;;;;343.83;76.60;;;;;;;-1.05;79.13;101338.81;339911;29;851;-71
2022/01/13 00:54:44;;;;;;;343.27;75.47;;;;;;;-1.04;78.85;101335.44;342634;28;798;-71
2022/01/13 00:54:56;;;;;;;342.53;75.73;;;;;;;-1.03;79.21;101337.19;342529;28;881;-71
2022/01/13 00:55:10;;;;;;;342.00;76.07;;;;;;;-1.04;78.61;101343.13;339933;29;831;-71
2022/01/13 00:55:22;;;;;;;342.48;75.95;;;;;;;-1.03;78.65;101332.03;339824;29;965;-71
2022/01/13 00:55:47;;;;;;;342.90;74.53;;;;;;;-1.02;78.71;101336.34;342472;28;837;-71
2022/01/13 00:56:00;;;;;;;342.20;74.65;;;;;;;-1.01;79.06;101337.22;342421;28;924;-71
2022/01/13 00:56:10;;;;;;;344.23;76.20;;;;;;;-1.03;78.74;101328.59;339873;28;1305;-71
2022/01/13 00:56:21;;;;;;;345.05;76.50;;;;;;;-1.02;78.66;101333.78;339808;29;918;-71
2022/01/13 00:56:35;;;;;;;344.77;77.27;;;;;;;-1.06;79.12;101339.63;339773;29;1319;-71
2022/01/13 00:56:45;;;;;;;342.42;75.30;;;;;;;-1.09;79.38;101329.25;342419;28;921;-71
2022/01/13 00:56:55;;;;;;;342.65;73.55;;;;;;;-1.06;79.33;101336.19;339887;29;621;-71
2022/01/13 00:57:06;;;;;;;344.00;74.90;;;;;;;-1.08;78.99;101338.72;339915;29;790;-71
2022/01/13 00:57:16;;;;;;;344.48;75.20;;;;;;;-1.05;79.01;101332.81;343925;28;723;-71
2022/01/13 00:57:28;;;;;;;345.13;76.27;;;;;;;-1.04;79.17;101335.44;342418;28;1205;-71
2022/01/13 00:57:38;;;;;;;345.65;76.50;;;;;;;-1.04;79.18;101330.28;338556;28;1462;-71
2022/01/13 00:57:48;;;;;;;345.93;77.00;;;;;;;-1.05;79.23;101337.94;341270;29;830;-71
2022/01/13 00:57:59;;;;;;;345.77;76.82;;;;;;;-1.06;79.03;101339.63;341194;29;961;-71
2022/01/13 00:58:09;;;;;;;343.40;75.47;;;;;;;-1.04;79.03;101335.44;339899;29;950;-71
2022/01/13 00:58:20;;;;;;;342.57;73.67;;;;;;;-1.03;79.26;101331.16;339768;29;1348;-71
2022/01/13 00:58:32;;;;;;;342.33;73.53;;;;;;;-1.02;78.85;101338.91;341069;29;1012;-71
2022/01/13 00:58:43;;;;;;;344.65;75.45;;;;;;;-1.00;78.98;101331.28;339822;29;1103;-71
2022/01/13 00:58:53;;;;;;;345.03;77.20;;;;;;;-0.98;79.17;101332.19;343769;28;1224;-71
2022/01/13 00:59:07;;;;;;;344.52;76.30;;;;;;;-1.01;79.11;101327.81;341155;29;984;-71
2022/01/13 00:59:17;;;;;;;343.35;76.07;;;;;;;-1.02;79.30;101327.78;339714;28;1209;-71
2022/01/13 00:59:28;;;;;;;343.50;75.80;;;;;;;-1.04;79.05;101330.28;343678;28;1192;-71
2022/01/13 00:59:38;;;;;;;342.30;75.30;;;;;;;-1.06;79.38;101328.50;343904;28;759;-71
2022/01/13 00:59:49;;;;;;;341.90;74.90;;;;;;;-1.07;79.09;101330.19;343899;28;925;-71
2022/01/13 00:59:59;;;;;;;343.30;75.53;;;;;;;-1.06;79.19;101337.06;342473;28;866;-71
2022/01/13 01:00:10;;;;;;;344.70;75.57;;;;;;;-1.06;79.08;101334.50;342446;28;897;-71
2022/01/13 01:00:20;;;;;;;346.45;76.22;;;;;;;-1.07;79.30;101335.31;339838;29;957;-71
2022/01/13 01:00:31;;;;;;;344.47;75.90;;;;;;;-1.09;79.21;101333.53;341033;28;1185;-70